Time;durP1;ratioP1;P1;durP2;ratioP2;P2;SDS_P1;SDS_P2;PMS_P1;PMS_P2;Temp;Humidity;BMP_temperature;BMP_pressure;BME280_temperature;BME280_humidity;BME280_pressure;Samples;Min_cycle;Max_cycle;Signal;HPM_P1;HPM_P2
2022/10/29 00:00:33;;;;;;;;;;;11.40;99.90;;;;;;5071360;28;19928;-71
2022/10/29 00:03:05;;;;;;;;;;;11.40;99.90;;;;;;5071016;28;19978;-73
2022/10/29 00:05:37;;;;;;;;;;;11.40;99.90;;;;;;5072035;28;20429;-76
2022/10/29 00:08:08;;;;;;;;;;;11.40;99.90;;;;;;5071629;28;19954;-73
2022/10/29 00:10:40;;;;;;;;;;;11.50;99.90;;;;;;5058858;28;20385;-75
2022/10/29 00:13:06;;;;;;;;;;;11.40;99.90;;;;;;5068412;28;20628;-73
2022/10/29 00:15:41;;;;;;;;;;;11.40;99.90;;;;;;5068783;28;19924;-73
2022/10/29 00:18:13;;;;;;;;;;;11.40;99.90;;;;;;5071612;28;19954;-75
2022/10/29 00:20:44;;;;;;;;;;;11.40;99.90;;;;;;5070398;28;19924;-73
2022/10/29 00:23:11;;;;;;;;;;;11.30;99.90;;;;;;5070078;28;19977;-73
2022/10/29 00:25:42;;;;;;;;;;;11.40;99.90;;;;;;5068314;28;19925;-75
2022/10/29 00:28:14;;;;;;;;;;;11.40;99.90;;;;;;5058104;28;19925;-73
2022/10/29 00:30:45;;;;;;;;;;;11.30;99.90;;;;;;5069477;28;19924;-73
2022/10/29 00:33:17;;;;;;;;;;;11.30;99.90;;;;;;5070301;28;19931;-74
2022/10/29 00:35:56;;;;;;;;;;;11.40;99.90;;;;;;5071397;28;19932;-73
2022/10/29 00:38:28;;;;;;;;;;;11.40;99.90;;;;;;5071484;28;19932;-73
2022/10/29 00:41:00;;;;;;;;;;;11.40;99.90;;;;;;5069841;28;19928;-72
2022/10/29 00:43:33;;;;;;;;;;;11.40;99.90;;;;;;5069556;28;19932;-73
2022/10/29 00:46:07;;;;;;;;;;;11.40;99.90;;;;;;5069484;28;19924;-76
2022/10/29 00:48:42;;;;;;;;;;;11.40;99.90;;;;;;5071402;28;19924;-73
2022/10/29 00:51:10;;;;;;;;;;;11.40;99.90;;;;;;5069049;28;20440;-74
2022/10/29 00:53:43;;;;;;;;;;;11.40;99.90;;;;;;5053728;28;19932;-74
2022/10/29 00:56:15;;;;;;;;;;;11.40;99.90;;;;;;5069273;28;19924;-75
2022/10/29 00:58:47;;;;;;;;;;;11.40;99.90;;;;;;5069911;28;19954;-74
2022/10/29 01:01:19;;;;;;;;;;;11.40;99.90;;;;;;5069085;28;19925;-74
2022/10/29 01:03:51;;;;;;;;;;;11.40;99.90;;;;;;5071222;28;19994;-73
2022/10/29 01:06:23;;;;;;;;;;;11.40;99.90;;;;;;5069993;28;19924;-73
2022/10/29 01:08:55;;;;;;;;;;;11.50;99.90;;;;;;5066582;28;19932;-72
2022/10/29 01:11:35;;;;;;;;;;;11.50;99.90;;;;;;5070236;28;19932;-72
2022/10/29 01:14:13;;;;;;;;;;;11.50;99.90;;;;;;5054321;28;19924;-71
2022/10/29 01:16:49;;;;;;;;;;;11.60;99.90;;;;;;5069450;28;19924;-74
2022/10/29 01:19:29;;;;;;;;;;;11.50;99.90;;;;;;5067162;28;19928;-75
2022/10/29 01:22:06;;;;;;;;;;;11.50;99.90;;;;;;5058744;28;20344;-73
2022/10/29 01:24:41;;;;;;;;;;;11.50;99.90;;;;;;5068306;28;19977;-72
2022/10/29 01:27:19;;;;;;;;;;;11.40;99.90;;;;;;5069461;28;19974;-72
2022/10/29 01:29:56;;;;;;;;;;;11.40;99.90;;;;;;5061733;28;19928;-72
2022/10/29 01:32:43;;;;;;;;;;;11.40;99.90;;;;;;5069361;28;19994;-74
2022/10/29 01:35:41;;;;;;;;;;;11.40;99.90;;;;;;5070529;28;19978;-73
2022/10/29 01:38:21;;;;;;;;;;;11.40;99.90;;;;;;5058782;28;19924;-73
2022/10/29 01:40:53;;;;;;;;;;;11.30;99.90;;;;;;5066436;28;20339;-73
2022/10/29 01:43:44;;;;;;;;;;;11.20;99.90;;;;;;5068328;28;19924;-74
2022/10/29 01:46:38;;;;;;;;;;;11.20;99.90;;;;;;5067915;28;20271;-72
2022/10/29 01:49:26;;;;;;;;;;;11.20;99.90;;;;;;5069986;28;19959;-74
2022/10/29 01:52:00;;;;;;;;;;;11.20;99.90;;;;;;5068466;28;19925;-73
2022/10/29 01:54:32;;;;;;;;;;;11.20;99.90;;;;;;5053798;28;19924;-72
2022/10/29 01:57:23;;;;;;;;;;;11.10;99.90;;;;;;5069412;28;20330;-74
2022/10/29 02:00:01;;;;;;;;;;;11.10;99.90;;;;;;5070806;28;19928;-72
2022/10/29 02:02:47;;;;;;;;;;;11.10;99.90;;;;;;5070308;28;20016;-72
2022/10/29 02:05:26;;;;;;;;;;;11.10;99.90;;;;;;5069657;28;19954;-72
2022/10/29 02:08:02;;;;;;;;;;;11.10;99.90;;;;;;5074505;28;19924;-73
2022/10/29 02:10:39;;;;;;;;;;;11.10;99.90;;;;;;5074930;28;19924;-73
2022/10/29 02:13:12;;;;;;;;;;;11.10;99.90;;;;;;5072326;28;19932;-74
2022/10/29 02:15:47;;;;;;;;;;;11.20;99.90;;;;;;5069262;28;19932;-75
2022/10/29 02:18:14;;;;;;;;;;;11.20;99.90;;;;;;5072135;28;19977;-74
2022/10/29 02:20:42;;;;;;;;;;;11.20;99.90;;;;;;5073719;28;19937;-73
2022/10/29 02:23:14;;;;;;;;;;;11.20;99.90;;;;;;5064043;28;20287;-73
2022/10/29 02:25:45;;;;;;;;;;;11.20;99.90;;;;;;5056325;28;19978;-76
2022/10/29 02:28:17;;;;;;;;;;;11.10;99.90;;;;;;5064936;28;19932;-75
2022/10/29 02:30:49;;;;;;;;;;;11.20;99.90;;;;;;5070332;28;20440;-75
2022/10/29 02:33:20;;;;;;;;;;;11.10;99.90;;;;;;5069912;28;19978;-75
2022/10/29 02:35:52;;;;;;;;;;;11.10;99.90;;;;;;5071813;28;19928;-72
2022/10/29 02:38:18;;;;;;;;;;;11.10;99.90;;;;;;5071848;28;20613;-75
2022/10/29 02:40:50;;;;;;;;;;;11.10;99.90;;;;;;5071861;28;19925;-73
2022/10/29 02:43:22;;;;;;;;;;;11.20;99.90;;;;;;5050732;28;20327;-73
2022/10/29 02:45:49;;;;;;;;;;;11.20;99.90;;;;;;5071839;28;20464;-76
2022/10/29 02:48:21;;;;;;;;;;;11.30;99.90;;;;;;5048731;28;20333;-74
2022/10/29 02:50:52;;;;;;;;;;;11.30;99.90;;;;;;5071863;28;19929;-73
2022/10/29 02:53:19;;;;;;;;;;;11.30;99.90;;;;;;5071434;28;19928;-73
2022/10/29 02:55:45;;;;;;;;;;;11.30;99.90;;;;;;5063510;28;19940;-75
2022/10/29 02:58:12;;;;;;;;;;;11.30;99.90;;;;;;5071327;28;19928;-75
2022/10/29 03:00:43;;;;;;;;;;;11.20;99.90;;;;;;5071728;28;19977;-74
2022/10/29 03:03:15;;;;;;;;;;;11.10;99.90;;;;;;5073330;28;19979;-75
2022/10/29 03:05:42;;;;;;;;;;;11.10;99.90;;;;;;5064755;28;19929;-73
2022/10/29 03:08:13;;;;;;;;;;;11.00;99.90;;;;;;5072683;28;19924;-75
2022/10/29 03:10:45;;;;;;;;;;;11.00;99.90;;;;;;5067366;28;19924;-73
2022/10/29 03:13:11;;;;;;;;;;;10.90;99.90;;;;;;5071604;28;19929;-75
2022/10/29 03:15:38;;;;;;;;;;;11.00;99.90;;;;;;5041772;28;19978;-75
2022/10/29 03:18:10;;;;;;;;;;;10.90;99.90;;;;;;5049848;28;19932;-75
2022/10/29 03:20:41;;;;;;;;;;;11.00;99.90;;;;;;5071238;28;19983;-74
2022/10/29 03:23:08;;;;;;;;;;;11.00;99.90;;;;;;5069109;28;20444;-76
2022/10/29 03:25:39;;;;;;;;;;;11.00;99.90;;;;;;5052050;28;19987;-74
2022/10/29 03:28:11;;;;;;;;;;;11.00;99.90;;;;;;5070861;28;20021;-76
2022/10/29 03:30:38;;;;;;;;;;;10.90;99.90;;;;;;5070264;28;19936;-76
2022/10/29 03:33:09;;;;;;;;;;;10.90;99.90;;;;;;5070074;28;19932;-77
2022/10/29 03:35:41;;;;;;;;;;;10.90;99.90;;;;;;5051518;28;19940;-76
2022/10/29 03:38:12;;;;;;;;;;;10.90;99.90;;;;;;5049018;28;19924;-74
2022/10/29 03:40:39;;;;;;;;;;;10.90;99.90;;;;;;5067839;28;19928;-75
2022/10/29 03:43:10;;;;;;;;;;;10.90;99.90;;;;;;5051444;28;19925;-74
2022/10/29 03:45:42;;;;;;;;;;;10.90;99.90;;;;;;5054368;28;20498;-76
2022/10/29 03:48:13;;;;;;;;;;;10.90;99.90;;;;;;5070424;28;20290;-76
2022/10/29 03:50:40;;;;;;;;;;;10.90;99.90;;;;;;5070551;28;20341;-75
2022/10/29 03:53:12;;;;;;;;;;;10.90;99.90;;;;;;5068096;28;19994;-75
2022/10/29 03:55:43;;;;;;;;;;;10.90;99.90;;;;;;5070618;28;19925;-76
2022/10/29 03:58:15;;;;;;;;;;;10.90;99.90;;;;;;5070508;28;19925;-75
2022/10/29 04:00:57;;;;;;;;;;;10.90;99.90;;;;;;5070466;28;19924;-75
2022/10/29 04:03:24;;;;;;;;;;;10.90;99.90;;;;;;5067391;28;19957;-76
2022/10/29 04:05:56;;;;;;;;;;;10.90;99.90;;;;;;5057797;28;19960;-76
2022/10/29 04:08:28;;;;;;;;;;;10.90;99.90;;;;;;5070576;28;19928;-76
2022/10/29 04:10:54;;;;;;;;;;;11.00;99.90;;;;;;5070175;28;19928;-74
2022/10/29 04:13:21;;;;;;;;;;;10.90;99.90;;;;;;5078838;28;19932;-75
2022/10/29 04:15:53;;;;;;;;;;;10.90;99.90;;;;;;5068297;28;19969;-74
2022/10/29 04:18:20;;;;;;;;;;;10.90;99.90;;;;;;5062102;28;20642;-77
2022/10/29 04:20:55;;;;;;;;;;;10.90;99.90;;;;;;5072155;28;19932;-73
2022/10/29 04:23:27;;;;;;;;;;;10.90;99.90;;;;;;5066423;28;19928;-74
2022/10/29 04:25:58;;;;;;;;;;;10.90;99.90;;;;;;5045280;28;19929;-74
2022/10/29 04:28:30;;;;;;;;;;;10.90;99.90;;;;;;5070154;28;19928;-73
2022/10/29 04:30:57;;;;;;;;;;;10.90;99.90;;;;;;5070494;28;19928;-74
2022/10/29 04:33:23;;;;;;;;;;;10.90;99.90;;;;;;5067688;28;19947;-76
2022/10/29 04:35:51;;;;;;;;;;;10.90;99.90;;;;;;5084559;28;19978;-70
2022/10/29 04:38:23;;;;;;;;;;;10.90;99.90;;;;;;5069740;28;20457;-73
2022/10/29 04:40:50;;;;;;;;;;;10.90;99.90;;;;;;5053076;28;20302;-74
2022/10/29 04:43:21;;;;;;;;;;;10.90;99.90;;;;;;5068501;28;19928;-74
2022/10/29 04:45:53;;;;;;;;;;;10.90;99.90;;;;;;5069383;28;19928;-73
2022/10/29 04:48:20;;;;;;;;;;;10.90;99.90;;;;;;5070670;28;19974;-74
2022/10/29 04:50:47;;;;;;;;;;;10.90;99.90;;;;;;5069029;28;19993;-74
2022/10/29 04:53:19;;;;;;;;;;;10.90;99.90;;;;;;5066004;28;19928;-75
2022/10/29 04:55:57;;;;;;;;;;;10.90;99.90;;;;;;5058273;28;19998;-75
2022/10/29 04:58:28;;;;;;;;;;;10.90;99.90;;;;;;5070838;28;19925;-75
2022/10/29 05:01:06;;;;;;;;;;;10.90;99.90;;;;;;5069564;28;20379;-76
2022/10/29 05:03:32;;;;;;;;;;;10.90;99.90;;;;;;5084353;28;20528;-74
2022/10/29 05:06:05;;;;;;;;;;;10.90;99.90;;;;;;5053132;28;19993;-74
2022/10/29 05:08:36;;;;;;;;;;;10.90;99.90;;;;;;5069512;28;20478;-76
2022/10/29 05:11:04;;;;;;;;;;;11.00;99.90;;;;;;5069008;28;19932;-73
2022/10/29 05:13:30;;;;;;;;;;;11.00;99.90;;;;;;5068032;28;19938;-75
2022/10/29 05:15:57;;;;;;;;;;;11.00;99.90;;;;;;5066989;28;20441;-72
2022/10/29 05:18:28;;;;;;;;;;;11.00;99.90;;;;;;5069286;28;19986;-75
2022/10/29 05:21:00;;;;;;;;;;;11.00;99.90;;;;;;5079151;28;19925;-73
2022/10/29 05:23:32;;;;;;;;;;;11.00;99.90;;;;;;5066970;28;19925;-75
2022/10/29 05:26:03;;;;;;;;;;;11.00;99.90;;;;;;5068757;28;19935;-74
2022/10/29 05:28:30;;;;;;;;;;;11.10;99.90;;;;;;5069159;28;19925;-75
2022/10/29 05:31:01;;;;;;;;;;;11.10;99.90;;;;;;5069497;28;19932;-75
2022/10/29 05:33:28;;;;;;;;;;;11.10;99.90;;;;;;5065359;28;19924;-74
2022/10/29 05:35:54;;;;;;;;;;;11.10;99.90;;;;;;5067198;28;19925;-75
2022/10/29 05:38:21;;;;;;;;;;;11.10;99.90;;;;;;5068805;28;19936;-74
2022/10/29 05:40:47;;;;;;;;;;;11.10;99.90;;;;;;5069794;28;20317;-73
2022/10/29 05:43:19;;;;;;;;;;;11.10;99.90;;;;;;5066020;28;19931;-74
2022/10/29 05:45:51;;;;;;;;;;;11.20;99.90;;;;;;5073247;28;19990;-74
2022/10/29 05:48:22;;;;;;;;;;;11.20;99.90;;;;;;5047768;28;19929;-76
2022/10/29 05:50:55;;;;;;;;;;;11.20;99.90;;;;;;5063915;28;19937;-75
2022/10/29 05:53:22;;;;;;;;;;;11.20;99.90;;;;;;5066129;28;19929;-73
2022/10/29 05:55:54;;;;;;;;;;;11.20;99.90;;;;;;5067925;28;20398;-74
2022/10/29 05:58:25;;;;;;;;;;;11.20;99.90;;;;;;5070108;28;19974;-74
2022/10/29 06:00:52;;;;;;;;;;;11.20;99.90;;;;;;5068578;28;19932;-75
2022/10/29 06:03:23;;;;;;;;;;;11.20;99.90;;;;;;5065846;28;19925;-73
2022/10/29 06:05:50;;;;;;;;;;;11.20;99.90;;;;;;5048926;28;19951;-76
2022/10/29 06:08:21;;;;;;;;;;;11.20;99.90;;;;;;5064702;28;19932;-74
2022/10/29 06:10:53;;;;;;;;;;;11.20;99.90;;;;;;5069699;28;19974;-77
2022/10/29 06:13:20;;;;;;;;;;;11.20;99.90;;;;;;5066872;28;19932;-75
2022/10/29 06:15:54;;;;;;;;;;;11.20;99.90;;;;;;5068107;28;20407;-73
2022/10/29 06:18:26;;;;;;;;;;;11.20;99.90;;;;;;5067492;28;19931;-73
2022/10/29 06:20:53;;;;;;;;;;;11.30;99.90;;;;;;5051600;28;20379;-73
2022/10/29 06:23:25;;;;;;;;;;;11.30;99.90;;;;;;5050516;28;19929;-73
2022/10/29 06:25:58;;;;;;;;;;;11.30;99.90;;;;;;5065607;28;19928;-74
2022/10/29 06:28:30;;;;;;;;;;;11.30;99.90;;;;;;5068548;28;20345;-74
2022/10/29 06:31:01;;;;;;;;;;;11.30;99.90;;;;;;5051371;28;19925;-72
2022/10/29 06:33:33;;;;;;;;;;;11.30;99.90;;;;;;5063215;28;19939;-71
2022/10/29 06:36:05;;;;;;;;;;;11.40;99.90;;;;;;5047976;28;19928;-74
2022/10/29 06:38:36;;;;;;;;;;;11.40;99.90;;;;;;5059650;28;20287;-74
2022/10/29 06:41:03;;;;;;;;;;;11.40;99.90;;;;;;5068185;28;19933;-74
2022/10/29 06:43:30;;;;;;;;;;;11.50;99.90;;;;;;5064867;28;19928;-74
2022/10/29 06:46:01;;;;;;;;;;;11.50;99.90;;;;;;5061922;28;20388;-74
2022/10/29 06:48:33;;;;;;;;;;;11.60;99.90;;;;;;5049206;28;20425;-74
2022/10/29 06:51:04;;;;;;;;;;;11.60;99.90;;;;;;5044687;28;19932;-72
2022/10/29 06:53:36;;;;;;;;;;;11.70;99.90;;;;;;5068268;28;19928;-78
2022/10/29 06:56:08;;;;;;;;;;;11.70;99.90;;;;;;5065293;28;19936;-73
2022/10/29 06:58:39;;;;;;;;;;;11.60;99.90;;;;;;5062648;28;19928;-73
2022/10/29 07:01:11;;;;;;;;;;;11.70;99.90;;;;;;5065497;28;20391;-75
2022/10/29 07:03:37;;;;;;;;;;;11.60;99.90;;;;;;5070535;28;19995;-75
2022/10/29 07:06:09;;;;;;;;;;;11.60;99.90;;;;;;5068401;28;19974;-75
2022/10/29 07:08:40;;;;;;;;;;;11.60;99.90;;;;;;5069619;28;19936;-74
2022/10/29 07:11:12;;;;;;;;;;;11.70;99.90;;;;;;5061873;28;19925;-73
2022/10/29 07:13:43;;;;;;;;;;;11.80;99.90;;;;;;5062510;28;19994;-75
2022/10/29 07:16:15;;;;;;;;;;;11.80;99.90;;;;;;5067611;28;19978;-75
2022/10/29 07:18:42;;;;;;;;;;;11.80;99.90;;;;;;5071545;28;19936;-75
2022/10/29 07:21:13;;;;;;;;;;;11.90;99.90;;;;;;5067278;28;19932;-75
2022/10/29 07:23:40;;;;;;;;;;;11.90;99.90;;;;;;5067444;28;19925;-73
2022/10/29 07:26:11;;;;;;;;;;;12.00;99.90;;;;;;5052123;28;19933;-74
2022/10/29 07:28:38;;;;;;;;;;;12.00;99.90;;;;;;5060202;28;19997;-74
2022/10/29 07:31:06;;;;;;;;;;;12.00;99.90;;;;;;5066548;28;19939;-74
2022/10/29 07:33:38;;;;;;;;;;;12.00;99.90;;;;;;5055424;28;19929;-75
2022/10/29 07:36:04;;;;;;;;;;;12.10;99.90;;;;;;5064718;28;19924;-74
2022/10/29 07:38:31;;;;;;;;;;;12.10;99.90;;;;;;5068964;28;19928;-75
2022/10/29 07:41:03;;;;;;;;;;;12.10;99.90;;;;;;5071057;28;19985;-73
2022/10/29 07:43:29;;;;;;;;;;;12.10;99.90;;;;;;5063519;28;19928;-75
2022/10/29 07:46:01;;;;;;;;;;;12.20;99.90;;;;;;5065895;28;19955;-74
2022/10/29 07:48:32;;;;;;;;;;;12.20;99.90;;;;;;5047387;28;19932;-73
2022/10/29 07:50:59;;;;;;;;;;;12.30;99.90;;;;;;5060137;28;20739;-73
2022/10/29 07:53:31;;;;;;;;;;;12.30;99.90;;;;;;5063761;28;19967;-73
2022/10/29 07:56:03;;;;;;;;;;;12.30;99.90;;;;;;5069173;28;19982;-73
2022/10/29 07:58:35;;;;;;;;;;;12.30;99.90;;;;;;5072512;28;20341;-74
2022/10/29 08:01:06;;;;;;;;;;;12.40;99.90;;;;;;5070938;28;19981;-74
2022/10/29 08:03:33;;;;;;;;;;;12.40;99.90;;;;;;5065774;28;19928;-73
2022/10/29 08:05:59;;;;;;;;;;;12.40;99.90;;;;;;5062618;28;19925;-73
2022/10/29 08:08:26;;;;;;;;;;;12.50;99.90;;;;;;5063790;28;20657;-73
2022/10/29 08:10:58;;;;;;;;;;;12.50;99.90;;;;;;5062852;28;19925;-74
2022/10/29 08:13:30;;;;;;;;;;;12.60;99.90;;;;;;5050656;28;20057;-74
2022/10/29 08:15:56;;;;;;;;;;;12.60;99.90;;;;;;5064312;28;19951;-73
2022/10/29 08:18:28;;;;;;;;;;;12.70;99.90;;;;;;5063552;28;19936;-74
2022/10/29 08:21:02;;;;;;;;;;;12.80;99.90;;;;;;5046970;28;19932;-73
2022/10/29 08:23:33;;;;;;;;;;;12.90;99.90;;;;;;5064024;28;19928;-73
2022/10/29 08:26:05;;;;;;;;;;;12.90;99.90;;;;;;5063930;28;19937;-74
2022/10/29 08:28:36;;;;;;;;;;;13.00;99.90;;;;;;5065848;28;19925;-73
2022/10/29 08:31:03;;;;;;;;;;;13.10;99.90;;;;;;5065873;28;19936;-71
2022/10/29 08:33:30;;;;;;;;;;;13.10;99.90;;;;;;5061928;28;19933;-72
2022/10/29 08:36:01;;;;;;;;;;;13.10;99.90;;;;;;5049882;28;19929;-73
2022/10/29 08:38:33;;;;;;;;;;;13.10;99.90;;;;;;5066007;28;20348;-73
2022/10/29 08:41:08;;;;;;;;;;;13.20;99.90;;;;;;5061024;28;19935;-73
2022/10/29 08:43:35;;;;;;;;;;;13.20;99.90;;;;;;5066086;28;19928;-71
2022/10/29 08:46:25;;;;;;;;;;;13.30;99.90;;;;;;5048243;28;19982;-71
2022/10/29 08:48:55;;;;;;;;;;;13.30;99.90;;;;;;5063801;28;19932;-72
2022/10/29 08:51:29;;;;;;;;;;;13.40;99.90;;;;;;5061223;28;19924;-72
2022/10/29 08:53:57;;;;;;;;;;;13.40;99.90;;;;;;5048840;28;19924;-73
2022/10/29 08:56:33;;;;;;;;;;;13.50;99.90;;;;;;5065693;28;19928;-73
2022/10/29 08:59:05;;;;;;;;;;;13.60;99.90;;;;;;5062861;28;20571;-74
2022/10/29 09:01:36;;;;;;;;;;;13.60;99.90;;;;;;5062233;28;20341;-71
2022/10/29 09:04:17;;;;;;;;;;;13.70;99.90;;;;;;5063321;28;20383;-73
2022/10/29 09:07:07;;;;;;;;;;;13.80;99.90;;;;;;5065432;28;19940;-74
2022/10/29 09:09:55;;;;;;;;;;;13.80;99.90;;;;;;5044063;28;20367;-76
2022/10/29 09:12:45;;;;;;;;;;;14.00;99.90;;;;;;5059514;28;19929;-72
2022/10/29 09:15:17;;;;;;;;;;;14.10;99.90;;;;;;5047978;28;19924;-75
2022/10/29 09:17:55;;;;;;;;;;;14.20;99.90;;;;;;5060435;28;19978;-74
2022/10/29 09:20:29;;;;;;;;;;;14.30;99.90;;;;;;5047269;28;19928;-76
2022/10/29 09:23:06;;;;;;;;;;;14.40;99.90;;;;;;5061651;28;20386;-74
2022/10/29 09:25:45;;;;;;;;;;;14.50;99.90;;;;;;5067808;28;19928;-74
2022/10/29 09:28:16;;;;;;;;;;;14.60;99.90;;;;;;5068084;28;19982;-75
2022/10/29 09:30:56;;;;;;;;;;;14.70;99.90;;;;;;5068978;28;20391;-74
2022/10/29 09:33:23;;;;;;;;;;;14.80;99.90;;;;;;5042645;28;20272;-74
2022/10/29 09:35:54;;;;;;;;;;;14.90;99.90;;;;;;5066236;28;19928;-74
2022/10/29 09:38:33;;;;;;;;;;;15.10;99.90;;;;;;5066868;28;21360;-76
2022/10/29 09:41:07;;;;;;;;;;;15.20;99.90;;;;;;5078957;28;20320;-71
2022/10/29 09:43:49;;;;;;;;;;;15.30;99.90;;;;;;5068606;28;19924;-72
2022/10/29 09:46:23;;;;;;;;;;;15.40;99.90;;;;;;5068278;28;19954;-74
2022/10/29 09:49:05;;;;;;;;;;;15.40;99.90;;;;;;5051915;28;19934;-76
2022/10/29 09:51:36;;;;;;;;;;;15.50;99.90;;;;;;5057997;28;19928;-74
2022/10/29 09:54:03;;;;;;;;;;;15.60;99.90;;;;;;5069497;28;19928;-75
2022/10/29 09:56:35;;;;;;;;;;;15.70;99.90;;;;;;5051413;28;19928;-76
2022/10/29 09:59:09;;;;;;;;;;;15.80;99.90;;;;;;5068794;28;19924;-75
2022/10/29 10:01:41;;;;;;;;;;;15.80;99.90;;;;;;5059931;28;19924;-76
2022/10/29 10:04:14;;;;;;;;;;;15.90;99.90;;;;;;5062031;28;19944;-74
2022/10/29 10:07:06;;;;;;;;;;;15.90;99.90;;;;;;5067654;28;19925;-74
2022/10/29 10:09:57;;;;;;;;;;;16.00;99.90;;;;;;5069656;28;19936;-74
2022/10/29 10:12:25;;;;;;;;;;;16.10;99.90;;;;;;5047191;28;19925;-75
2022/10/29 10:15:15;;;;;;;;;;;16.20;99.90;;;;;;5047215;28;19925;-76
2022/10/29 10:18:01;;;;;;;;;;;16.30;99.90;;;;;;5063606;28;20020;-75
2022/10/29 10:20:40;;;;;;;;;;;16.40;99.90;;;;;;5064286;28;20452;-75
2022/10/29 10:23:35;;;;;;;;;;;16.40;99.90;;;;;;5049843;28;19978;-75
2022/10/29 10:26:01;;;;;;;;;;;16.50;99.90;;;;;;5053412;28;19929;-72
2022/10/29 10:28:29;;;;;;;;;;;16.60;99.90;;;;;;5069830;28;19924;-73
2022/10/29 10:31:15;;;;;;;;;;;16.80;99.90;;;;;;5067450;28;19928;-76
2022/10/29 10:33:52;;;;;;;;;;;16.80;99.90;;;;;;5071271;28;19933;-76
2022/10/29 10:36:27;;;;;;;;;;;16.90;99.90;;;;;;5053045;28;19932;-73
2022/10/29 10:38:59;;;;;;;;;;;17.00;99.90;;;;;;5062927;28;19929;-73
2022/10/29 10:41:33;;;;;;;;;;;17.10;99.90;;;;;;5052849;28;19978;-75
2022/10/29 10:44:03;;;;;;;;;;;17.20;99.90;;;;;;5071835;28;19925;-75
2022/10/29 10:46:41;;;;;;;;;;;17.20;99.90;;;;;;5066674;28;19925;-72
2022/10/29 10:49:10;;;;;;;;;;;17.30;99.90;;;;;;5067405;28;19929;-76
2022/10/29 10:51:48;;;;;;;;;;;17.40;99.90;;;;;;5062014;28;19986;-73
2022/10/29 10:54:25;;;;;;;;;;;17.50;99.90;;;;;;5050795;28;19975;-74
2022/10/29 10:57:01;;;;;;;;;;;17.60;99.90;;;;;;5071426;28;19955;-73
2022/10/29 10:59:45;;;;;;;;;;;17.70;99.90;;;;;;5069552;28;19924;-74
2022/10/29 11:02:19;;;;;;;;;;;17.80;99.90;;;;;;5064940;28;19983;-75
2022/10/29 11:05:11;;;;;;;;;;;18.00;99.90;;;;;;5071451;28;19924;-74
2022/10/29 11:07:40;;;;;;;;;;;18.10;99.90;;;;;;5068483;28;19970;-72
2022/10/29 11:10:12;;;;;;;;;;;18.30;99.90;;;;;;5070715;28;20375;-75
2022/10/29 11:12:49;;;;;;;;;;;18.40;99.90;;;;;;5068700;28;19928;-72
2022/10/29 11:15:28;;;;;;;;;;;18.50;99.90;;;;;;5053767;28;19932;-74
2022/10/29 11:18:10;;;;;;;;;;;18.60;99.90;;;;;;5072804;28;19978;-74
2022/10/29 11:20:45;;;;;;;;;;;18.80;99.90;;;;;;5066653;28;19935;-73
2022/10/29 11:23:30;;;;;;;;;;;18.80;99.90;;;;;;5049171;28;19925;-74
2022/10/29 11:26:06;;;;;;;;;;;19.00;99.90;;;;;;5063489;28;19936;-75
2022/10/29 11:28:40;;;;;;;;;;;19.10;99.90;;;;;;5082919;28;19929;-74
2022/10/29 11:31:25;;;;;;;;;;;19.10;99.90;;;;;;5068295;28;19954;-74
2022/10/29 11:34:00;;;;;;;;;;;19.20;99.90;;;;;;5066618;28;19924;-72
2022/10/29 11:36:37;;;;;;;;;;;19.30;99.90;;;;;;5071003;28;19994;-73
2022/10/29 11:39:09;;;;;;;;;;;19.30;99.90;;;;;;5071102;28;19997;-74
2022/10/29 11:41:38;;;;;;;;;;;19.40;99.90;;;;;;5068029;28;20349;-73
2022/10/29 11:44:10;;;;;;;;;;;19.50;99.90;;;;;;5068427;28;19929;-74
2022/10/29 11:46:48;;;;;;;;;;;19.60;99.90;;;;;;5078051;28;19928;-73
2022/10/29 11:49:19;;;;;;;;;;;19.60;99.90;;;;;;5062783;28;19986;-76
2022/10/29 11:51:50;;;;;;;;;;;19.70;99.90;;;;;;5064666;28;19925;-75
2022/10/29 11:54:40;;;;;;;;;;;19.70;99.90;;;;;;5064800;28;19991;-73
2022/10/29 11:57:12;;;;;;;;;;;19.80;99.90;;;;;;5066517;28;20396;-72
2022/10/29 11:59:57;;;;;;;;;;;19.80;99.90;;;;;;5060810;28;19982;-72
2022/10/29 12:02:38;;;;;;;;;;;19.90;99.90;;;;;;5061458;28;20011;-76
2022/10/29 12:05:26;;;;;;;;;;;19.90;99.90;;;;;;5058076;28;19932;-74
2022/10/29 12:07:57;;;;;;;;;;;20.00;99.90;;;;;;5060590;28;20455;-74
2022/10/29 12:10:47;;;;;;;;;;;20.10;99.90;;;;;;5060023;28;19925;-75
2022/10/29 12:13:29;;;;;;;;;;;20.20;99.90;;;;;;5063273;28;19924;-74
2022/10/29 12:16:00;;;;;;;;;;;20.20;99.90;;;;;;5067417;28;20671;-73
2022/10/29 12:18:32;;;;;;;;;;;20.30;99.90;;;;;;5072686;28;19929;-73
2022/10/29 12:21:17;;;;;;;;;;;20.40;99.90;;;;;;5066306;28;19924;-70
2022/10/29 12:23:49;;;;;;;;;;;20.40;99.90;;;;;;5060042;28;19925;-73
2022/10/29 12:26:25;;;;;;;;;;;20.50;99.90;;;;;;5062013;28;19932;-75
2022/10/29 12:29:15;;;;;;;;;;;20.60;99.90;;;;;;5066252;28;20892;-73
2022/10/29 12:31:55;;;;;;;;;;;20.60;99.90;;;;;;5055759;28;19933;-73
2022/10/29 12:34:39;;;;;;;;;;;20.60;99.90;;;;;;5061850;28;19928;-76
2022/10/29 12:37:11;;;;;;;;;;;20.70;99.90;;;;;;5063024;28;19979;-75
2022/10/29 12:39:47;;;;;;;;;;;20.70;99.90;;;;;;5063840;28;20326;-76
2022/10/29 12:42:26;;;;;;;;;;;20.70;99.90;;;;;;5062349;28;19959;-75
2022/10/29 12:45:13;;;;;;;;;;;20.70;99.90;;;;;;5050662;28;20704;-72
2022/10/29 12:48:08;;;;;;;;;;;20.70;99.90;;;;;;5058640;28;19933;-73
2022/10/29 12:50:50;;;;;;;;;;;20.70;99.90;;;;;;5035610;28;19936;-75
2022/10/29 12:53:33;;;;;;;;;;;20.60;99.90;;;;;;5065358;28;19936;-75
2022/10/29 12:56:05;;;;;;;;;;;20.60;99.90;;;;;;5065321;28;19925;-74
2022/10/29 12:58:48;;;;;;;;;;;20.50;99.90;;;;;;5065124;28;19932;-74
2022/10/29 13:01:25;;;;;;;;;;;20.50;99.90;;;;;;5061266;28;19968;-73
2022/10/29 13:03:58;;;;;;;;;;;20.40;99.90;;;;;;5065225;28;19929;-75
2022/10/29 13:06:41;;;;;;;;;;;20.40;99.90;;;;;;5062991;28;19928;-76
2022/10/29 13:09:20;;;;;;;;;;;20.40;99.90;;;;;;5060707;28;19925;-75
2022/10/29 13:11:52;;;;;;;;;;;20.40;99.90;;;;;;5064071;28;20399;-75
2022/10/29 13:14:39;;;;;;;;;;;20.40;99.90;;;;;;5065316;28;20432;-74
2022/10/29 13:17:29;;;;;;;;;;;20.50;99.90;;;;;;5062199;28;19974;-75
2022/10/29 13:20:06;;;;;;;;;;;20.50;99.90;;;;;;5060813;28;20008;-75
2022/10/29 13:22:52;;;;;;;;;;;20.60;99.90;;;;;;5061296;28;20255;-75
2022/10/29 13:25:39;;;;;;;;;;;20.60;99.90;;;;;;5066326;28;19925;-75
2022/10/29 13:28:11;;;;;;;;;;;20.70;99.90;;;;;;5065512;28;19978;-72
2022/10/29 13:30:44;;;;;;;;;;;20.70;99.90;;;;;;5064446;28;19935;-73
2022/10/29 13:33:24;;;;;;;;;;;20.70;99.90;;;;;;5059969;28;19932;-74
2022/10/29 13:36:00;;;;;;;;;;;20.70;99.90;;;;;;5060829;28;20280;-70
2022/10/29 13:38:53;;;;;;;;;;;20.60;99.90;;;;;;5062125;28;19928;-75
2022/10/29 13:41:38;;;;;;;;;;;20.60;99.90;;;;;;5058350;28;19932;-72
2022/10/29 13:44:10;;;;;;;;;;;20.60;99.90;;;;;;5061794;28;19989;-72
2022/10/29 13:46:48;;;;;;;;;;;20.50;99.90;;;;;;5056253;28;19994;-73
2022/10/29 13:49:25;;;;;;;;;;;20.40;99.90;;;;;;5058105;28;19968;-76
2022/10/29 13:52:01;;;;;;;;;;;20.30;99.90;;;;;;5062081;28;19929;-73
2022/10/29 13:55:02;;;;;;;;;;;20.30;99.90;;;;;;5060692;28;20387;-72
2022/10/29 13:57:59;;;;;;;;;;;20.30;99.90;;;;;;5041244;28;19929;-71
2022/10/29 14:00:33;;;;;;;;;;;20.30;99.90;;;;;;5062084;28;19924;-73
2022/10/29 14:03:12;;;;;;;;;;;20.30;99.90;;;;;;5064114;28;19931;-72
2022/10/29 14:06:02;;;;;;;;;;;20.30;99.90;;;;;;5063364;28;19929;-73
2022/10/29 14:08:37;;;;;;;;;;;20.30;99.90;;;;;;5067280;28;19924;-73
2022/10/29 14:11:12;;;;;;;;;;;20.40;99.90;;;;;;5048990;28;19929;-71
2022/10/29 14:13:48;;;;;;;;;;;20.40;99.90;;;;;;5070593;28;19925;-71
2022/10/29 14:16:19;;;;;;;;;;;20.40;99.90;;;;;;5069338;28;20371;-74
2022/10/29 14:18:52;;;;;;;;;;;20.30;99.90;;;;;;5069930;28;19982;-71
2022/10/29 14:21:22;;;;;;;;;;;20.30;99.90;;;;;;5071837;28;19924;-72
2022/10/29 14:23:57;;;;;;;;;;;20.30;99.90;;;;;;5075832;28;19924;-74
2022/10/29 14:26:29;;;;;;;;;;;20.30;99.90;;;;;;5070154;28;19932;-74
2022/10/29 14:29:13;;;;;;;;;;;20.30;99.90;;;;;;5071509;28;20498;-72
2022/10/29 14:31:45;;;;;;;;;;;20.20;99.90;;;;;;5062575;28;19924;-73
2022/10/29 14:34:25;;;;;;;;;;;20.10;99.90;;;;;;5069418;28;19925;-72
2022/10/29 14:36:54;;;;;;;;;;;20.00;99.90;;;;;;5067156;28;19924;-74
2022/10/29 14:39:30;;;;;;;;;;;19.90;99.90;;;;;;5063601;28;20059;-74
2022/10/29 14:41:57;;;;;;;;;;;19.80;99.90;;;;;;5057139;28;19989;-75
2022/10/29 14:44:23;;;;;;;;;;;19.70;99.90;;;;;;5071492;28;19928;-76
2022/10/29 14:47:09;;;;;;;;;;;19.60;99.90;;;;;;5055568;28;19924;-76
2022/10/29 14:49:38;;;;;;;;;;;19.50;99.90;;;;;;5069545;28;19971;-76
2022/10/29 14:52:21;;;;;;;;;;;19.30;99.90;;;;;;5051851;28;19929;-77
2022/10/29 14:54:53;;;;;;;;;;;19.30;99.90;;;;;;5062167;28;19925;-76